sensor_id;sensor_type;location;lat;lon;timestamp;temperature;humidity
7000;DHT22;3540;53.242;10.408;2023-05-10T00:00:08;13.90;29.10
7000;DHT22;3540;53.242;10.408;2023-05-10T00:02:34;13.80;30.10
7000;DHT22;3540;53.242;10.408;2023-05-10T00:05:00;13.80;30.90
7000;DHT22;3540;53.242;10.408;2023-05-10T00:07:26;13.80;31.50
7000;DHT22;3540;53.242;10.408;2023-05-10T00:09:52;13.80;33.60
7000;DHT22;3540;53.242;10.408;2023-05-10T00:12:17;13.80;33.60
7000;DHT22;3540;53.242;10.408;2023-05-10T00:14:43;13.80;35.10
7000;DHT22;3540;53.242;10.408;2023-05-10T00:17:08;13.80;36.00
7000;DHT22;3540;53.242;10.408;2023-05-10T00:19:34;13.70;36.80
7000;DHT22;3540;53.242;10.408;2023-05-10T00:22:00;13.60;37.20
7000;DHT22;3540;53.242;10.408;2023-05-10T00:24:25;13.60;39.10
7000;DHT22;3540;53.242;10.408;2023-05-10T00:26:51;13.60;40.30
7000;DHT22;3540;53.242;10.408;2023-05-10T00:29:17;13.50;40.40
7000;DHT22;3540;53.242;10.408;2023-05-10T00:31:42;13.50;42.00
7000;DHT22;3540;53.242;10.408;2023-05-10T00:34:08;13.50;42.80
7000;DHT22;3540;53.242;10.408;2023-05-10T00:36:33;13.50;43.40
7000;DHT22;3540;53.242;10.408;2023-05-10T00:38:59;13.50;44.50
7000;DHT22;3540;53.242;10.408;2023-05-10T00:41:25;13.50;44.10
7000;DHT22;3540;53.242;10.408;2023-05-10T00:43:51;13.50;45.60
7000;DHT22;3540;53.242;10.408;2023-05-10T00:46:17;13.40;45.60
7000;DHT22;3540;53.242;10.408;2023-05-10T00:48:43;13.40;45.20
7000;DHT22;3540;53.242;10.408;2023-05-10T00:51:13;13.30;46.60
7000;DHT22;3540;53.242;10.408;2023-05-10T00:53:38;13.30;71.10
7000;DHT22;3540;53.242;10.408;2023-05-10T00:56:04;13.30;49.20
7000;DHT22;3540;53.242;10.408;2023-05-10T00:58:31;13.30;49.30
7000;DHT22;3540;53.242;10.408;2023-05-10T01:00:56;13.30;51.10
7000;DHT22;3540;53.242;10.408;2023-05-10T01:03:23;13.20;51.50
7000;DHT22;3540;53.242;10.408;2023-05-10T01:05:48;13.20;53.00
7000;DHT22;3540;53.242;10.408;2023-05-10T01:08:15;13.20;54.50
7000;DHT22;3540;53.242;10.408;2023-05-10T01:10:41;13.10;54.80
7000;DHT22;3540;53.242;10.408;2023-05-10T01:13:07;13.00;57.20
7000;DHT22;3540;53.242;10.408;2023-05-10T01:15:33;13.10;82.80
7000;DHT22;3540;53.242;10.408;2023-05-10T01:17:59;13.00;58.20
7000;DHT22;3540;53.242;10.408;2023-05-10T01:20:31;13.00;58.20
7000;DHT22;3540;53.242;10.408;2023-05-10T01:29:04;13.00;61.50
7000;DHT22;3540;53.242;10.408;2023-05-10T01:34:27;12.90;63.20
7000;DHT22;3540;53.242;10.408;2023-05-10T01:37:10;12.90;64.20
7000;DHT22;3540;53.242;10.408;2023-05-10T01:39:46;12.80;66.90
7000;DHT22;3540;53.242;10.408;2023-05-10T01:42:26;12.80;68.40
7000;DHT22;3540;53.242;10.408;2023-05-10T01:45:02;12.80;68.50
7000;DHT22;3540;53.242;10.408;2023-05-10T01:50:00;12.70;74.90
7000;DHT22;3540;53.242;10.408;2023-05-10T01:52:31;12.60;75.30
7000;DHT22;3540;53.242;10.408;2023-05-10T01:55:15;12.60;78.90
7000;DHT22;3540;53.242;10.408;2023-05-10T01:57:43;12.60;78.10
7000;DHT22;3540;53.242;10.408;2023-05-10T02:00:10;12.50;79.50
7000;DHT22;3540;53.242;10.408;2023-05-10T02:02:39;12.50;83.20
7000;DHT22;3540;53.242;10.408;2023-05-10T02:05:07;12.50;84.10
7000;DHT22;3540;53.242;10.408;2023-05-10T02:07:35;12.50;84.00
7000;DHT22;3540;53.242;10.408;2023-05-10T02:10:04;12.40;89.50
7000;DHT22;3540;53.242;10.408;2023-05-10T02:12:32;12.40;90.10
7000;DHT22;3540;53.242;10.408;2023-05-10T02:15:02;12.30;91.90
7000;DHT22;3540;53.242;10.408;2023-05-10T02:17:31;12.30;91.60
7000;DHT22;3540;53.242;10.408;2023-05-10T02:19:58;12.30;92.90
7000;DHT22;3540;53.242;10.408;2023-05-10T02:22:26;12.20;93.20
7000;DHT22;3540;53.242;10.408;2023-05-10T02:24:54;12.30;92.90
7000;DHT22;3540;53.242;10.408;2023-05-10T02:27:22;12.20;94.00
7000;DHT22;3540;53.242;10.408;2023-05-10T02:29:49;12.20;94.80
7000;DHT22;3540;53.242;10.408;2023-05-10T02:32:17;12.20;95.50
7000;DHT22;3540;53.242;10.408;2023-05-10T02:34:45;12.10;95.50
7000;DHT22;3540;53.242;10.408;2023-05-10T02:37:15;12.10;96.50
7000;DHT22;3540;53.242;10.408;2023-05-10T02:39:44;12.10;98.10
7000;DHT22;3540;53.242;10.408;2023-05-10T02:42:16;12.00;99.90
7000;DHT22;3540;53.242;10.408;2023-05-10T02:44:43;12.00;99.90
7000;DHT22;3540;53.242;10.408;2023-05-10T02:47:10;12.00;99.90
7000;DHT22;3540;53.242;10.408;2023-05-10T02:49:36;12.00;99.90
7000;DHT22;3540;53.242;10.408;2023-05-10T02:52:05;11.90;99.90
7000;DHT22;3540;53.242;10.408;2023-05-10T02:54:34;11.90;99.90
7000;DHT22;3540;53.242;10.408;2023-05-10T02:57:04;11.90;99.90
7000;DHT22;3540;53.242;10.408;2023-05-10T02:59:30;11.80;99.90
7000;DHT22;3540;53.242;10.408;2023-05-10T03:01:59;11.80;99.90
7000;DHT22;3540;53.242;10.408;2023-05-10T03:04:25;11.80;99.90
7000;DHT22;3540;53.242;10.408;2023-05-10T03:06:51;11.80;99.90
7000;DHT22;3540;53.242;10.408;2023-05-10T03:09:17;11.80;99.90
7000;DHT22;3540;53.242;10.408;2023-05-10T03:17:25;11.70;99.90
7000;DHT22;3540;53.242;10.408;2023-05-10T03:20:02;11.70;99.90
7000;DHT22;3540;53.242;10.408;2023-05-10T03:22:36;11.70;99.90
7000;DHT22;3540;53.242;10.408;2023-05-10T03:25:06;11.70;99.90
7000;DHT22;3540;53.242;10.408;2023-05-10T03:27:32;11.70;99.90
7000;DHT22;3540;53.242;10.408;2023-05-10T03:29:59;11.70;99.90
7000;DHT22;3540;53.242;10.408;2023-05-10T03:32:26;11.70;99.90
7000;DHT22;3540;53.242;10.408;2023-05-10T03:34:54;11.70;99.90
7000;DHT22;3540;53.242;10.408;2023-05-10T03:37:19;11.70;99.90
7000;DHT22;3540;53.242;10.408;2023-05-10T03:39:45;11.70;99.90
7000;DHT22;3540;53.242;10.408;2023-05-10T03:42:10;11.70;99.90
7000;DHT22;3540;53.242;10.408;2023-05-10T03:44:38;11.70;99.90
7000;DHT22;3540;53.242;10.408;2023-05-10T03:47:04;11.70;99.90
7000;DHT22;3540;53.242;10.408;2023-05-10T03:49:29;11.70;99.90
7000;DHT22;3540;53.242;10.408;2023-05-10T03:51:55;11.70;99.90
7000;DHT22;3540;53.242;10.408;2023-05-10T03:54:21;11.70;99.90
7000;DHT22;3540;53.242;10.408;2023-05-10T03:56:46;11.70;99.90
7000;DHT22;3540;53.242;10.408;2023-05-10T03:59:13;11.70;99.90
7000;DHT22;3540;53.242;10.408;2023-05-10T04:01:39;11.70;99.90
7000;DHT22;3540;53.242;10.408;2023-05-10T04:04:04;11.70;99.90
7000;DHT22;3540;53.242;10.408;2023-05-10T04:06:30;11.70;99.90
7000;DHT22;3540;53.242;10.408;2023-05-10T04:08:56;11.70;99.90
7000;DHT22;3540;53.242;10.408;2023-05-10T04:11:25;11.70;99.90
7000;DHT22;3540;53.242;10.408;2023-05-10T04:13:53;11.80;99.90
7000;DHT22;3540;53.242;10.408;2023-05-10T04:16:19;11.80;99.90
7000;DHT22;3540;53.242;10.408;2023-05-10T04:18:44;11.80;99.90
7000;DHT22;3540;53.242;10.408;2023-05-10T04:21:13;11.80;99.90
7000;DHT22;3540;53.242;10.408;2023-05-10T04:23:39;11.80;99.90
7000;DHT22;3540;53.242;10.408;2023-05-10T04:26:05;11.80;99.90
7000;DHT22;3540;53.242;10.408;2023-05-10T04:28:31;11.80;99.90
7000;DHT22;3540;53.242;10.408;2023-05-10T04:31:03;11.80;99.90
7000;DHT22;3540;53.242;10.408;2023-05-10T04:33:30;11.80;99.90
7000;DHT22;3540;53.242;10.408;2023-05-10T04:35:55;11.80;99.90
7000;DHT22;3540;53.242;10.408;2023-05-10T04:38:21;11.80;99.90
7000;DHT22;3540;53.242;10.408;2023-05-10T04:40:47;11.80;99.90
7000;DHT22;3540;53.242;10.408;2023-05-10T04:43:12;11.80;99.90
7000;DHT22;3540;53.242;10.408;2023-05-10T04:45:38;11.80;99.90
7000;DHT22;3540;53.242;10.408;2023-05-10T04:48:04;11.80;99.90
7000;DHT22;3540;53.242;10.408;2023-05-10T04:50:30;11.80;99.90
7000;DHT22;3540;53.242;10.408;2023-05-10T04:52:55;11.90;99.90
7000;DHT22;3540;53.242;10.408;2023-05-10T04:55:21;12.00;99.90
7000;DHT22;3540;53.242;10.408;2023-05-10T04:57:46;12.00;99.90
7000;DHT22;3540;53.242;10.408;2023-05-10T05:00:12;12.10;99.90
7000;DHT22;3540;53.242;10.408;2023-05-10T05:02:41;12.10;99.90
7000;DHT22;3540;53.242;10.408;2023-05-10T05:05:07;12.30;99.90
7000;DHT22;3540;53.242;10.408;2023-05-10T05:07:33;12.20;99.90
7000;DHT22;3540;53.242;10.408;2023-05-10T05:09:58;12.30;99.90
7000;DHT22;3540;53.242;10.408;2023-05-10T05:12:24;12.40;99.90
7000;DHT22;3540;53.242;10.408;2023-05-10T05:14:50;12.50;99.90
7000;DHT22;3540;53.242;10.408;2023-05-10T05:17:16;12.60;99.90
7000;DHT22;3540;53.242;10.408;2023-05-10T05:19:42;12.60;99.90
7000;DHT22;3540;53.242;10.408;2023-05-10T05:22:07;12.70;99.90
7000;DHT22;3540;53.242;10.408;2023-05-10T05:24:36;12.80;99.90
7000;DHT22;3540;53.242;10.408;2023-05-10T05:27:05;13.00;99.90
7000;DHT22;3540;53.242;10.408;2023-05-10T05:29:31;13.00;99.90
7000;DHT22;3540;53.242;10.408;2023-05-10T05:31:57;13.00;99.90
7000;DHT22;3540;53.242;10.408;2023-05-10T05:34:22;13.10;99.90
7000;DHT22;3540;53.242;10.408;2023-05-10T05:36:48;13.20;99.90
7000;DHT22;3540;53.242;10.408;2023-05-10T05:39:14;13.20;99.90
7000;DHT22;3540;53.242;10.408;2023-05-10T05:41:39;13.30;99.90
7000;DHT22;3540;53.242;10.408;2023-05-10T05:44:05;13.40;99.90
7000;DHT22;3540;53.242;10.408;2023-05-10T05:46:30;13.40;99.90
7000;DHT22;3540;53.242;10.408;2023-05-10T05:48:56;13.40;99.90
7000;DHT22;3540;53.242;10.408;2023-05-10T05:51:22;13.30;99.90
7000;DHT22;3540;53.242;10.408;2023-05-10T05:53:47;13.30;99.90
7000;DHT22;3540;53.242;10.408;2023-05-10T05:56:13;13.50;99.90
7000;DHT22;3540;53.242;10.408;2023-05-10T05:58:39;13.70;99.90
7000;DHT22;3540;53.242;10.408;2023-05-10T06:01:04;13.90;99.90
7000;DHT22;3540;53.242;10.408;2023-05-10T06:03:30;13.90;99.40
7000;DHT22;3540;53.242;10.408;2023-05-10T06:05:56;13.80;97.30
7000;DHT22;3540;53.242;10.408;2023-05-10T06:08:21;13.70;97.90
7000;DHT22;3540;53.242;10.408;2023-05-10T06:10:47;13.80;99.90
7000;DHT22;3540;53.242;10.408;2023-05-10T06:13:13;13.70;99.90
7000;DHT22;3540;53.242;10.408;2023-05-10T06:15:39;13.70;99.30
7000;DHT22;3540;53.242;10.408;2023-05-10T06:18:05;14.00;99.90
7000;DHT22;3540;53.242;10.408;2023-05-10T06:20:31;14.30;97.40
7000;DHT22;3540;53.242;10.408;2023-05-10T06:22:57;14.40;97.00
7000;DHT22;3540;53.242;10.408;2023-05-10T06:25:23;14.60;95.80
7000;DHT22;3540;53.242;10.408;2023-05-10T06:27:49;14.90;94.70
7000;DHT22;3540;53.242;10.408;2023-05-10T06:30:14;15.00;93.50
7000;DHT22;3540;53.242;10.408;2023-05-10T06:32:41;14.90;93.10
7000;DHT22;3540;53.242;10.408;2023-05-10T06:35:07;14.90;92.60
7000;DHT22;3540;53.242;10.408;2023-05-10T06:37:33;15.00;92.40
7000;DHT22;3540;53.242;10.408;2023-05-10T06:39:59;15.20;95.40
7000;DHT22;3540;53.242;10.408;2023-05-10T06:42:26;15.30;94.70
7000;DHT22;3540;53.242;10.408;2023-05-10T06:44:52;15.30;95.00
7000;DHT22;3540;53.242;10.408;2023-05-10T06:47:18;15.30;92.70
7000;DHT22;3540;53.242;10.408;2023-05-10T06:49:44;15.10;91.70
7000;DHT22;3540;53.242;10.408;2023-05-10T06:52:09;15.10;94.80
7000;DHT22;3540;53.242;10.408;2023-05-10T06:54:35;15.20;92.70
7000;DHT22;3540;53.242;10.408;2023-05-10T06:57:01;15.20;91.10
7000;DHT22;3540;53.242;10.408;2023-05-10T06:59:28;15.20;90.60
7000;DHT22;3540;53.242;10.408;2023-05-10T07:01:54;15.30;91.80
7000;DHT22;3540;53.242;10.408;2023-05-10T07:04:19;15.40;92.30
7000;DHT22;3540;53.242;10.408;2023-05-10T07:06:45;15.50;90.90
7000;DHT22;3540;53.242;10.408;2023-05-10T07:09:11;15.50;90.30
7000;DHT22;3540;53.242;10.408;2023-05-10T07:11:38;15.60;87.00
7000;DHT22;3540;53.242;10.408;2023-05-10T07:14:04;15.50;87.90
7000;DHT22;3540;53.242;10.408;2023-05-10T07:16:30;15.50;87.50
7000;DHT22;3540;53.242;10.408;2023-05-10T07:18:56;15.60;84.80
7000;DHT22;3540;53.242;10.408;2023-05-10T07:21:21;15.80;87.80
7000;DHT22;3540;53.242;10.408;2023-05-10T07:23:49;15.80;89.50
7000;DHT22;3540;53.242;10.408;2023-05-10T07:26:15;16.00;90.00
7000;DHT22;3540;53.242;10.408;2023-05-10T07:28:41;15.90;85.30
7000;DHT22;3540;53.242;10.408;2023-05-10T07:31:07;16.10;85.50
7000;DHT22;3540;53.242;10.408;2023-05-10T07:33:32;16.20;83.40
7000;DHT22;3540;53.242;10.408;2023-05-10T07:35:58;16.30;86.20
7000;DHT22;3540;53.242;10.408;2023-05-10T07:38:24;16.20;88.20
7000;DHT22;3540;53.242;10.408;2023-05-10T07:40:52;16.10;81.70
7000;DHT22;3540;53.242;10.408;2023-05-10T07:43:23;16.20;84.10
7000;DHT22;3540;53.242;10.408;2023-05-10T07:45:49;16.10;87.10
7000;DHT22;3540;53.242;10.408;2023-05-10T07:48:14;16.10;87.50
7000;DHT22;3540;53.242;10.408;2023-05-10T07:50:40;16.20;90.60
7000;DHT22;3540;53.242;10.408;2023-05-10T07:53:06;16.20;90.40
7000;DHT22;3540;53.242;10.408;2023-05-10T07:55:31;16.20;90.00
7000;DHT22;3540;53.242;10.408;2023-05-10T07:57:57;16.20;90.20
7000;DHT22;3540;53.242;10.408;2023-05-10T08:00:23;16.30;90.70
7000;DHT22;3540;53.242;10.408;2023-05-10T08:02:48;16.50;87.70
7000;DHT22;3540;53.242;10.408;2023-05-10T08:05:14;16.50;87.10
7000;DHT22;3540;53.242;10.408;2023-05-10T08:07:40;16.60;90.80
7000;DHT22;3540;53.242;10.408;2023-05-10T08:10:06;16.60;86.00
7000;DHT22;3540;53.242;10.408;2023-05-10T08:12:32;16.80;89.80
7000;DHT22;3540;53.242;10.408;2023-05-10T08:14:58;16.80;88.70
7000;DHT22;3540;53.242;10.408;2023-05-10T08:17:23;16.90;87.10
7000;DHT22;3540;53.242;10.408;2023-05-10T08:19:49;17.00;87.30
7000;DHT22;3540;53.242;10.408;2023-05-10T08:22:14;17.30;85.80
7000;DHT22;3540;53.242;10.408;2023-05-10T08:24:40;17.40;81.10
7000;DHT22;3540;53.242;10.408;2023-05-10T08:27:08;17.50;83.60
7000;DHT22;3540;53.242;10.408;2023-05-10T08:29:34;17.60;82.90
7000;DHT22;3540;53.242;10.408;2023-05-10T08:32:00;17.70;79.80
7000;DHT22;3540;53.242;10.408;2023-05-10T08:34:26;17.60;80.60
7000;DHT22;3540;53.242;10.408;2023-05-10T08:36:52;17.50;85.50
7000;DHT22;3540;53.242;10.408;2023-05-10T08:39:18;17.20;83.60
7000;DHT22;3540;53.242;10.408;2023-05-10T08:41:44;17.00;88.20
7000;DHT22;3540;53.242;10.408;2023-05-10T08:44:12;16.80;90.00
7000;DHT22;3540;53.242;10.408;2023-05-10T08:46:39;16.70;91.10
7000;DHT22;3540;53.242;10.408;2023-05-10T08:49:09;16.60;92.70
7000;DHT22;3540;53.242;10.408;2023-05-10T08:51:40;16.40;93.30
7000;DHT22;3540;53.242;10.408;2023-05-10T08:54:09;16.30;95.20
7000;DHT22;3540;53.242;10.408;2023-05-10T08:56:36;16.40;98.50
7000;DHT22;3540;53.242;10.408;2023-05-10T08:59:02;16.30;99.90
7000;DHT22;3540;53.242;10.408;2023-05-10T09:01:28;16.40;99.90
7000;DHT22;3540;53.242;10.408;2023-05-10T09:03:57;16.50;98.50
7000;DHT22;3540;53.242;10.408;2023-05-10T09:06:23;16.50;98.60
7000;DHT22;3540;53.242;10.408;2023-05-10T09:08:49;16.60;99.10
7000;DHT22;3540;53.242;10.408;2023-05-10T09:11:16;16.70;97.60
7000;DHT22;3540;53.242;10.408;2023-05-10T09:13:42;16.60;96.60
7000;DHT22;3540;53.242;10.408;2023-05-10T09:16:09;16.60;97.50
7000;DHT22;3540;53.242;10.408;2023-05-10T09:18:35;16.50;98.90
7000;DHT22;3540;53.242;10.408;2023-05-10T09:21:00;16.40;99.90
7000;DHT22;3540;53.242;10.408;2023-05-10T09:23:26;16.30;99.90
7000;DHT22;3540;53.242;10.408;2023-05-10T09:26:07;16.30;99.90
7000;DHT22;3540;53.242;10.408;2023-05-10T09:28:34;16.60;99.90
7000;DHT22;3540;53.242;10.408;2023-05-10T09:31:15;16.90;99.90
7000;DHT22;3540;53.242;10.408;2023-05-10T09:33:48;17.00;99.90
7000;DHT22;3540;53.242;10.408;2023-05-10T09:36:14;17.10;99.90
7000;DHT22;3540;53.242;10.408;2023-05-10T09:38:56;16.90;99.90
7000;DHT22;3540;53.242;10.408;2023-05-10T09:41:23;16.70;99.90
7000;DHT22;3540;53.242;10.408;2023-05-10T09:43:49;16.60;99.90
7000;DHT22;3540;53.242;10.408;2023-05-10T09:46:15;16.60;99.90
7000;DHT22;3540;53.242;10.408;2023-05-10T09:48:44;16.50;99.90
7000;DHT22;3540;53.242;10.408;2023-05-10T09:51:10;16.50;99.90
7000;DHT22;3540;53.242;10.408;2023-05-10T09:53:36;16.30;99.90
7000;DHT22;3540;53.242;10.408;2023-05-10T09:56:01;16.00;99.90
7000;DHT22;3540;53.242;10.408;2023-05-10T09:58:27;16.10;99.90
7000;DHT22;3540;53.242;10.408;2023-05-10T10:00:53;16.20;99.90
7000;DHT22;3540;53.242;10.408;2023-05-10T10:03:20;16.10;99.90
7000;DHT22;3540;53.242;10.408;2023-05-10T10:05:47;16.10;99.90
7000;DHT22;3540;53.242;10.408;2023-05-10T10:08:14;16.00;99.90
7000;DHT22;3540;53.242;10.408;2023-05-10T10:10:40;16.20;99.90
7000;DHT22;3540;53.242;10.408;2023-05-10T10:13:07;16.00;99.90
7000;DHT22;3540;53.242;10.408;2023-05-10T10:15:34;15.80;99.90
7000;DHT22;3540;53.242;10.408;2023-05-10T10:18:00;15.70;99.90
7000;DHT22;3540;53.242;10.408;2023-05-10T10:20:26;15.50;99.90
7000;DHT22;3540;53.242;10.408;2023-05-10T10:22:52;15.40;99.90
7000;DHT22;3540;53.242;10.408;2023-05-10T10:25:19;15.10;99.90
7000;DHT22;3540;53.242;10.408;2023-05-10T10:35:21;14.30;1.00
7000;DHT22;3540;53.242;10.408;2023-05-10T10:37:49;14.10;1.00
7000;DHT22;3540;53.242;10.408;2023-05-10T10:40:25;13.90;1.00
7000;DHT22;3540;53.242;10.408;2023-05-10T10:42:51;13.70;1.00
7000;DHT22;3540;53.242;10.408;2023-05-10T10:45:19;13.70;1.00
7000;DHT22;3540;53.242;10.408;2023-05-10T10:47:45;13.70;1.00
7000;DHT22;3540;53.242;10.408;2023-05-10T10:50:11;13.70;1.00
7000;DHT22;3540;53.242;10.408;2023-05-10T10:52:42;13.80;1.00
7000;DHT22;3540;53.242;10.408;2023-05-10T10:57:45;13.80;1.00
7000;DHT22;3540;53.242;10.408;2023-05-10T11:00:27;13.90;1.00
7000;DHT22;3540;53.242;10.408;2023-05-10T11:07:56;13.90;99.90
7000;DHT22;3540;53.242;10.408;2023-05-10T11:10:23;14.00;99.90
7000;DHT22;3540;53.242;10.408;2023-05-10T11:12:55;14.20;99.90
7000;DHT22;3540;53.242;10.408;2023-05-10T11:15:48;14.30;99.90
7000;DHT22;3540;53.242;10.408;2023-05-10T11:18:23;14.50;99.90
7000;DHT22;3540;53.242;10.408;2023-05-10T11:23:20;14.40;15.00
7000;DHT22;3540;53.242;10.408;2023-05-10T11:25:48;14.40;42.40
7000;DHT22;3540;53.242;10.408;2023-05-10T11:28:14;14.40;44.90
7000;DHT22;3540;53.242;10.408;2023-05-10T11:30:41;14.40;97.40
7000;DHT22;3540;53.242;10.408;2023-05-10T11:33:08;14.50;99.90
7000;DHT22;3540;53.242;10.408;2023-05-10T11:35:38;14.70;99.90
7000;DHT22;3540;53.242;10.408;2023-05-10T11:38:10;14.90;99.90
7000;DHT22;3540;53.242;10.408;2023-05-10T11:40:37;15.10;1.00
7000;DHT22;3540;53.242;10.408;2023-05-10T11:43:03;15.00;1.00
7000;DHT22;3540;53.242;10.408;2023-05-10T11:45:33;15.00;1.00
7000;DHT22;3540;53.242;10.408;2023-05-10T11:47:59;15.30;1.00
7000;DHT22;3540;53.242;10.408;2023-05-10T11:50:25;15.40;1.00
7000;DHT22;3540;53.242;10.408;2023-05-10T11:52:55;15.50;1.00
7000;DHT22;3540;53.242;10.408;2023-05-10T11:55:21;15.70;1.00
7000;DHT22;3540;53.242;10.408;2023-05-10T11:57:48;15.50;1.00
7000;DHT22;3540;53.242;10.408;2023-05-10T12:00:16;15.50;1.00
7000;DHT22;3540;53.242;10.408;2023-05-10T12:02:42;15.30;1.00
7000;DHT22;3540;53.242;10.408;2023-05-10T12:05:08;15.30;1.00
7000;DHT22;3540;53.242;10.408;2023-05-10T12:07:34;15.60;1.00
7000;DHT22;3540;53.242;10.408;2023-05-10T12:10:11;15.70;1.00
7000;DHT22;3540;53.242;10.408;2023-05-10T12:12:42;15.60;1.00
7000;DHT22;3540;53.242;10.408;2023-05-10T12:15:11;15.60;1.00
7000;DHT22;3540;53.242;10.408;2023-05-10T12:17:38;15.60;1.00
7000;DHT22;3540;53.242;10.408;2023-05-10T12:25:15;15.40;1.00
7000;DHT22;3540;53.242;10.408;2023-05-10T12:27:47;15.40;1.00
7000;DHT22;3540;53.242;10.408;2023-05-10T12:30:13;15.50;1.00
7000;DHT22;3540;53.242;10.408;2023-05-10T12:32:44;15.50;1.00
7000;DHT22;3540;53.242;10.408;2023-05-10T12:35:09;15.50;1.00
7000;DHT22;3540;53.242;10.408;2023-05-10T12:37:35;15.50;1.00
7000;DHT22;3540;53.242;10.408;2023-05-10T12:40:08;15.50;1.00
7000;DHT22;3540;53.242;10.408;2023-05-10T12:42:36;15.50;1.00
7000;DHT22;3540;53.242;10.408;2023-05-10T12:45:04;15.50;1.00
7000;DHT22;3540;53.242;10.408;2023-05-10T12:47:31;15.50;1.00
7000;DHT22;3540;53.242;10.408;2023-05-10T12:49:56;15.60;1.00
7000;DHT22;3540;53.242;10.408;2023-05-10T12:52:23;15.60;1.00
7000;DHT22;3540;53.242;10.408;2023-05-10T12:54:48;15.70;1.00
7000;DHT22;3540;53.242;10.408;2023-05-10T12:57:14;15.90;1.00
7000;DHT22;3540;53.242;10.408;2023-05-10T12:59:40;15.70;1.00
7000;DHT22;3540;53.242;10.408;2023-05-10T13:02:06;15.90;1.00
7000;DHT22;3540;53.242;10.408;2023-05-10T13:04:32;16.00;1.00
7000;DHT22;3540;53.242;10.408;2023-05-10T13:06:58;16.20;1.00
7000;DHT22;3540;53.242;10.408;2023-05-10T13:09:27;16.30;1.00
7000;DHT22;3540;53.242;10.408;2023-05-10T13:11:54;16.30;1.00
7000;DHT22;3540;53.242;10.408;2023-05-10T13:14:20;16.50;1.00
7000;DHT22;3540;53.242;10.408;2023-05-10T13:16:47;16.50;1.00
7000;DHT22;3540;53.242;10.408;2023-05-10T13:19:13;16.40;1.00
7000;DHT22;3540;53.242;10.408;2023-05-10T13:21:39;16.50;1.00
7000;DHT22;3540;53.242;10.408;2023-05-10T13:24:06;16.20;1.00
7000;DHT22;3540;53.242;10.408;2023-05-10T13:26:32;16.40;1.00
7000;DHT22;3540;53.242;10.408;2023-05-10T13:28:58;16.60;1.00
7000;DHT22;3540;53.242;10.408;2023-05-10T13:31:24;16.60;1.00
7000;DHT22;3540;53.242;10.408;2023-05-10T13:33:49;16.40;1.00
7000;DHT22;3540;53.242;10.408;2023-05-10T13:36:15;16.10;1.00
7000;DHT22;3540;53.242;10.408;2023-05-10T13:38:40;16.20;1.00
7000;DHT22;3540;53.242;10.408;2023-05-10T13:41:06;16.30;1.00
7000;DHT22;3540;53.242;10.408;2023-05-10T13:43:32;16.40;1.00
7000;DHT22;3540;53.242;10.408;2023-05-10T13:45:57;16.50;1.00
7000;DHT22;3540;53.242;10.408;2023-05-10T13:48:23;16.30;1.00
7000;DHT22;3540;53.242;10.408;2023-05-10T13:50:49;16.40;1.00
7000;DHT22;3540;53.242;10.408;2023-05-10T13:53:15;16.30;1.00
7000;DHT22;3540;53.242;10.408;2023-05-10T13:55:41;16.30;1.00
7000;DHT22;3540;53.242;10.408;2023-05-10T13:58:06;16.40;1.00
7000;DHT22;3540;53.242;10.408;2023-05-10T14:00:32;16.60;1.00
7000;DHT22;3540;53.242;10.408;2023-05-10T14:02:58;16.50;1.00
7000;DHT22;3540;53.242;10.408;2023-05-10T14:05:23;16.70;1.00
7000;DHT22;3540;53.242;10.408;2023-05-10T14:07:50;17.00;1.00
7000;DHT22;3540;53.242;10.408;2023-05-10T14:10:16;17.30;1.00
7000;DHT22;3540;53.242;10.408;2023-05-10T14:12:41;18.00;1.00
7000;DHT22;3540;53.242;10.408;2023-05-10T14:15:07;18.60;1.00
7000;DHT22;3540;53.242;10.408;2023-05-10T14:17:35;18.70;1.00
7000;DHT22;3540;53.242;10.408;2023-05-10T14:20:01;18.50;1.00
7000;DHT22;3540;53.242;10.408;2023-05-10T14:22:27;18.40;1.00
7000;DHT22;3540;53.242;10.408;2023-05-10T14:24:53;18.30;1.00
7000;DHT22;3540;53.242;10.408;2023-05-10T14:27:18;18.20;1.00
7000;DHT22;3540;53.242;10.408;2023-05-10T14:29:44;18.00;1.00
7000;DHT22;3540;53.242;10.408;2023-05-10T14:32:10;18.10;1.00
7000;DHT22;3540;53.242;10.408;2023-05-10T14:34:36;18.00;1.00
7000;DHT22;3540;53.242;10.408;2023-05-10T14:37:01;17.90;1.00
7000;DHT22;3540;53.242;10.408;2023-05-10T14:39:27;18.00;1.00
7000;DHT22;3540;53.242;10.408;2023-05-10T14:41:55;18.30;1.00
7000;DHT22;3540;53.242;10.408;2023-05-10T14:44:21;18.40;1.00
7000;DHT22;3540;53.242;10.408;2023-05-10T14:46:47;18.60;1.00
7000;DHT22;3540;53.242;10.408;2023-05-10T14:49:13;18.80;1.00
7000;DHT22;3540;53.242;10.408;2023-05-10T14:51:39;18.90;99.90
7000;DHT22;3540;53.242;10.408;2023-05-10T14:54:05;18.80;1.00
7000;DHT22;3540;53.242;10.408;2023-05-10T14:56:31;18.70;1.00
7000;DHT22;3540;53.242;10.408;2023-05-10T14:58:57;18.50;1.00
7000;DHT22;3540;53.242;10.408;2023-05-10T15:01:23;18.70;1.00
7000;DHT22;3540;53.242;10.408;2023-05-10T15:03:48;18.80;1.00
7000;DHT22;3540;53.242;10.408;2023-05-10T15:06:14;18.60;1.00
7000;DHT22;3540;53.242;10.408;2023-05-10T15:08:41;18.20;1.00
7000;DHT22;3540;53.242;10.408;2023-05-10T15:11:06;18.00;1.00
7000;DHT22;3540;53.242;10.408;2023-05-10T15:13:32;17.90;1.00
7000;DHT22;3540;53.242;10.408;2023-05-10T15:15:58;18.00;1.00
7000;DHT22;3540;53.242;10.408;2023-05-10T15:18:23;18.00;1.00
7000;DHT22;3540;53.242;10.408;2023-05-10T15:20:49;18.20;1.00
7000;DHT22;3540;53.242;10.408;2023-05-10T15:23:15;18.40;1.00
7000;DHT22;3540;53.242;10.408;2023-05-10T15:25:40;18.40;1.00
7000;DHT22;3540;53.242;10.408;2023-05-10T15:28:06;18.70;1.00
7000;DHT22;3540;53.242;10.408;2023-05-10T15:30:31;18.50;1.00
7000;DHT22;3540;53.242;10.408;2023-05-10T15:32:57;18.00;1.00
7000;DHT22;3540;53.242;10.408;2023-05-10T15:35:23;17.90;1.00
7000;DHT22;3540;53.242;10.408;2023-05-10T15:37:48;17.90;1.00
7000;DHT22;3540;53.242;10.408;2023-05-10T15:40:17;17.60;1.00
7000;DHT22;3540;53.242;10.408;2023-05-10T15:42:42;17.60;1.00
7000;DHT22;3540;53.242;10.408;2023-05-10T15:45:09;17.60;1.00
7000;DHT22;3540;53.242;10.408;2023-05-10T15:47:34;17.80;1.00
7000;DHT22;3540;53.242;10.408;2023-05-10T15:50:00;18.00;1.00
7000;DHT22;3540;53.242;10.408;2023-05-10T15:52:26;18.10;1.00
7000;DHT22;3540;53.242;10.408;2023-05-10T15:54:51;18.00;1.00
7000;DHT22;3540;53.242;10.408;2023-05-10T15:57:17;17.90;1.00
7000;DHT22;3540;53.242;10.408;2023-05-10T15:59:42;17.80;1.00
7000;DHT22;3540;53.242;10.408;2023-05-10T16:02:09;17.80;1.00
7000;DHT22;3540;53.242;10.408;2023-05-10T16:04:35;17.70;1.00
7000;DHT22;3540;53.242;10.408;2023-05-10T16:07:02;17.50;1.00
7000;DHT22;3540;53.242;10.408;2023-05-10T16:09:27;17.30;1.00
7000;DHT22;3540;53.242;10.408;2023-05-10T16:11:53;17.10;1.00
7000;DHT22;3540;53.242;10.408;2023-05-10T16:14:19;16.90;1.00
7000;DHT22;3540;53.242;10.408;2023-05-10T16:16:47;16.80;1.00
7000;DHT22;3540;53.242;10.408;2023-05-10T16:19:13;16.70;1.00
7000;DHT22;3540;53.242;10.408;2023-05-10T16:21:38;16.80;1.00
7000;DHT22;3540;53.242;10.408;2023-05-10T16:24:04;16.90;1.00
7000;DHT22;3540;53.242;10.408;2023-05-10T16:26:30;17.00;1.00
7000;DHT22;3540;53.242;10.408;2023-05-10T16:28:56;17.10;1.00